• Join FlightAware (Why Join?)
  • Login
  • US Flag 
01:08PM EDT


 

Airport Tracker/Info


-or-


 

Live Flight TrackerFlight Track Log ✈ AFR6725 ✈ 18-May-2013 ✈ KIAH - LFPG / CDG

Flight Track Log - Related Links

Times and Time Zones

All times are in EDT time to prevent confusion due to time zone crossing. See the AFR6725 flight status page for this flight to view local times or setup timezone preferences in your user account.

Time Position Orientation Groundspeed Altitude Reporting Facility
EDT Latitude Longitude Course Direction KTS MPH feet Rate Location/Type
09:22AM 29.9450 -95.3346 163° South 178 205 900  Level FlightAware ADS-B
09:22AM 29.9401 -95.3352 186° South 180 207 1,000 1,200 Climbing FlightAware ADS-B
09:23AM 29.9369 -95.3365 199° South 183 211 1,100 2,220 Climbing FlightAware ADS-B
09:23AM 29.9339 -95.3385 210° Southwest 184 212 1,300 1,800 Climbing FlightAware ADS-B
09:23AM 29.9304 -95.3424 224° Southwest 186 214 1,400 1,320 Climbing FlightAware ADS-B
09:23AM 29.9289 -95.3448 234° Southwest 188 216 1,500 1,980 Climbing FlightAware ADS-B
09:23AM 29.9276 -95.3478 243° Southwest 190 219 1,600 1,680 Climbing FlightAware ADS-B
09:23AM 29.9266 -95.3514 252° West 192 221 1,700 1,500 Climbing FlightAware ADS-B
09:23AM 29.9261 -95.3556 262° West 196 226 1,800 1,680 Climbing FlightAware ADS-B
09:23AM 29.9262 -95.3596 272° West 204 235 1,900 1,680 Climbing FlightAware ADS-B
09:23AM 29.9268 -95.3637 280° West 212 244 2,000 840 Climbing FlightAware ADS-B
09:23AM 29.9277 -95.3671 287° West 219 252 2,000 720 Level FlightAware ADS-B
09:23AM 29.9297 -95.3724 294° West 229 264 2,100 1,200 Climbing FlightAware ADS-B
09:23AM 29.9365 -95.3821 309° West 241 277 2,300 1,260 Climbing FlightAware ADS-B
09:23AM 29.9400 -95.3853 322° Northwest 252 290 2,400 1,980 Climbing FlightAware ADS-B
09:24AM 29.9458 -95.3890 331° Northwest 255 293 2,600 1,980 Climbing FlightAware ADS-B
09:24AM 29.9495 -95.3907 338° Northwest 261 300 2,700 1,680 Climbing FlightAware ADS-B
09:24AM 29.9530 -95.3919 343° North 265 305 2,800 960 Climbing FlightAware ADS-B
09:24AM 29.9575 -95.3929 349° North 269 310 2,800 720 Level FlightAware ADS-B
09:24AM 29.9634 -95.3935 355° North 277 319 2,900 1,200 Climbing FlightAware ADS-B
09:24AM 29.9692 -95.3931 North 283 326 3,000 1,080 Climbing FlightAware ADS-B
09:24AM 29.9782 -95.3908 12° North 289 333 3,100 1,620 Climbing FlightAware ADS-B
09:24AM 29.9920 -95.3850 20° North 3,400 1,980 Climbing FlightAware ADS-B
09:24AM 29.9933 -95.3843 25° Northeast 296 341 3,500 1,500 Climbing FlightAware ADS-B
09:24AM 30.0129 -95.3749 23° Northeast 311 358 3,800 1,260 Climbing FlightAware ADS-B
09:24AM 30.0170 -95.3730 22° Northeast 276 318 3,900 720 Climbing FlightAware ADS-B
09:25AM 30.0345 -95.3643 23° Northeast 324 373 4,000 300 Climbing FlightAware ADS-B
09:25AM 30.0410 -95.3610 24° Northeast 293 337 4,000  Level FlightAware ADS-B
09:25AM 30.0585 -95.3528 22° Northeast 325 374 4,000  Level FlightAware ADS-B
09:25AM 30.0670 -95.3490 21° North 311 358 4,000  Level FlightAware ADS-B
09:25AM 30.0798 -95.3424 24° Northeast 326 375 4,000 -360 Level FlightAware ADS-B
09:25AM 30.0930 -95.3360 23° Northeast 354 407 3,900 -420 Descending FlightAware ADS-B
09:25AM 30.1009 -95.3322 23° Northeast 326 375 3,900  Level FlightAware ADS-B
09:26AM 30.1180 -95.3240 23° Northeast 370 426 3,900 360 Level FlightAware ADS-B
09:26AM 30.1223 -95.3217 25° Northeast 326 375 4,000 660 Climbing FlightAware ADS-B
09:26AM 30.1440 -95.3110 23° Northeast 355 409 4,100 1,020 Climbing FlightAware ADS-B
09:26AM 30.1537 -95.3061 24° Northeast 327 376 4,400 3,000 Climbing FlightAware ADS-B
09:26AM 30.1690 -95.2990 22° Northeast 333 383 5,000 3,600 Climbing FlightAware ADS-B
09:26AM 30.1750 -95.2955 27° Northeast 324 373 5,300 3,120 Climbing FlightAware ADS-B
09:27AM 30.1930 -95.2860 25° Northeast 316 364 5,900 2,580 Climbing FlightAware ADS-B
09:27AM 30.1962 -95.2845 22° Northeast 324 373 6,000 2,820 Climbing FlightAware ADS-B
09:27AM 30.2162 -95.2731 26° Northeast 326 375 6,700 3,000 Climbing FlightAware ADS-B
09:27AM 30.2170 -95.2720 50° Northeast 313 360 6,800 3,420 Climbing FlightAware ADS-B
09:27AM 30.2257 -95.2676 24° Northeast 326 375 7,100 2,820 Climbing FlightAware ADS-B
09:27AM 30.2420 -95.2590 25° Northeast 321 369 7,600 2,580 Climbing FlightAware ADS-B
09:27AM 30.2464 -95.2568 23° Northeast 328 377 7,800 2,820 Climbing FlightAware ADS-B
09:27AM 30.2670 -95.2460 24° Northeast 321 369 8,500 3,000 Climbing FlightAware ADS-B
09:28AM 30.2889 -95.2357 22° Northeast 326 375 9,300 3,000 Climbing FlightAware ADS-B
09:28AM 30.2930 -95.2340 20° North 330 380 9,400 2,520 Climbing FlightAware ADS-B
09:28AM 30.3288 -95.2165 23° Northeast 332 382 10,500 2,400 Climbing FlightAware ADS-B
09:28AM 30.3350 -95.2130 26° Northeast 352 405 10,600 720 Climbing FlightAware ADS-B
09:28AM 30.3392 -95.2109 23° Northeast 337 388 10,600 1,200 Level FlightAware ADS-B
09:28AM 30.3491 -95.2032 34° Northeast 341 392 10,800 1,320 Climbing FlightAware ADS-B
09:28AM 30.3510 -95.2020 29° Northeast 338 389 10,800 1,200 Level FlightAware ADS-B
09:29AM 30.3545 -95.1974 49° Northeast 344 396 10,900 1,620 Climbing FlightAware ADS-B
09:29AM 30.3831 -95.1603 48° Northeast 362 417 11,600 1,500 Climbing FlightAware ADS-B
09:29AM 30.3830 -95.1600 111° Southeast 366 421 11,600 1,320 Level FlightAware ADS-B
09:29AM 30.4117 -95.1183 51° Northeast 385 443 12,200 1,440 Climbing FlightAware ADS-B
09:29AM 30.4160 -95.1120 52° Northeast 398 458 12,300 1,380 Climbing FlightAware ADS-B
09:30AM 30.4450 -95.0660 54° Northeast 412 474 12,900 1,440 Climbing FlightAware ADS-B
09:30AM 30.4550 -95.0500 54° Northeast 399 459 13,200 1,980 Climbing FlightAware ADS-B
09:30AM 30.4790 -95.0112 54° Northeast 423 487 13,900 2,220 Climbing FlightAware ADS-B
09:31AM 30.4960 -94.9830 55° Northeast 418 481 14,500 2,460 Climbing FlightAware ADS-B
09:31AM 30.5141 -94.9546 54° Northeast 430 495 15,200 2,700 Climbing FlightAware ADS-B
09:31AM 30.5315 -94.9268 54° Northeast 430 495 15,900 2,280 Climbing FlightAware ADS-B
09:31AM 30.5456 -94.9072 50° Northeast 436 502 16,200 1,800 Climbing FlightAware ADS-B
09:32AM 30.5596 -94.8912 45° Northeast 439 505 16,500 1,980 Climbing FlightAware ADS-B
09:32AM 30.5620 -94.8880 49° Northeast 415 478 16,600 1,680 Climbing FlightAware ADS-B
09:32AM 30.5804 -94.8712 38° Northeast 445 512 16,900 1,800 Climbing FlightAware ADS-B
09:32AM 30.6150 -94.8440 34° Northeast 477 549 17,500 1,980 Climbing FlightAware ADS-B
09:32AM 30.6331 -94.8300 34° Northeast 455 524 17,900 1,980 Climbing FlightAware ADS-B
09:33AM 30.6770 -94.7960 34° Northeast 453 521 18,700 1,980 Climbing FlightAware ADS-B
09:33AM 30.6865 -94.7892 32° Northeast 463 533 18,900 1,920 Climbing FlightAware ADS-B
09:33AM 30.7320 -94.7540 34° Northeast 483 556 19,700 1,740 Climbing FlightAware ADS-B
09:33AM 30.7423 -94.7465 32° Northeast 472 543 19,800 1,620 Climbing FlightAware ADS-B
09:34AM 30.7980 -94.7040 33° Northeast 469 540 20,700 1,740 Climbing FlightAware ADS-B
09:34AM 30.8568 -94.6583 34° Northeast 489 563 21,600 1,620 Climbing FlightAware ADS-B
09:34AM 30.8660 -94.6510 34° Northeast 670 771 21,700 1,560 Climbing FlightAware ADS-B
09:35AM 30.9146 -94.6136 33° Northeast 498 573 22,400 1,620 Climbing FlightAware ADS-B
09:35AM 30.9340 -94.5990 33° Northeast 625 719 22,700 1,680 Climbing FlightAware ADS-B
09:35AM 30.9815 -94.5617 34° Northeast 505 581 23,400 1,680 Climbing FlightAware ADS-B
09:36AM 30.9960 -94.5500 35° Northeast 522 601 23,600 1,380 Climbing FlightAware ADS-B
09:36AM 31.0412 -94.5154 33° Northeast 514 592 24,100 1,500 Climbing FlightAware ADS-B
09:36AM 31.0680 -94.4950 33° Northeast 517 595 24,500 1,500 Climbing FlightAware ADS-B
09:36AM 31.1053 -94.4656 34° Northeast 523 602 24,900 1,440 Climbing FlightAware ADS-B
09:37AM 31.1200 -94.4540 34° Northeast 367 422 25,100 1,500 Climbing FlightAware ADS-B
09:37AM 31.1676 -94.4171 34° Northeast 529 609 25,700 1,620 Climbing FlightAware ADS-B
09:37AM 31.2292 -94.3691 34° Northeast 530 610 26,600 1,800 Climbing FlightAware ADS-B
09:38AM 31.2950 -94.3180 34° Northeast 27,600 1,800 Climbing FlightAware ADS-B
09:38AM 31.3024 -94.3118 36° Northeast 529 609 27,700 1,800 Climbing FlightAware ADS-B
09:39AM 31.4485 -94.1974 34° Northeast 525 604 29,900 1,680 Climbing FlightAware ADS-B
09:40AM 31.4790 -94.1730 34° Northeast 30,300 1,500 Climbing FlightAware ADS-B
09:40AM 31.5125 -94.1472 33° Northeast 521 600 30,700 1,440 Climbing FlightAware ADS-B
09:40AM 31.5410 -94.1250 34° Northeast 521 600 31,000 300 Climbing FlightAware ADS-B
09:41AM 31.6160 -94.0660 34° Northeast 514 592 31,000 180 Level FlightAware ADS-B
09:41AM 31.6600 -94.0310 34° Northeast 523 602 31,200 1,200 Climbing FlightAware ADS-B
09:42AM 31.7503 -93.9597 34° Northeast 521 600 32,400 300 Climbing FlightAware ADS-B
09:46AM 32.3032 -93.5189 34° Northeast 531 611 33,000 60 Climbing FlightAware ADS-B
09:50AM 32.7186 -93.1838 34° Northeast 531 611 33,000  Level FlightAware ADS-B
09:50AM 32.7669 -93.1394 34° Northeast 530 610 33,000  Level Fort Worth Center
09:51AM 32.8889 -93.0422 34° Northeast 530 610 33,000  Level Fort Worth Center
09:52AM 33.0108 -92.9469 33° Northeast 525 604 33,000  Level Fort Worth Center
09:54AM 33.2547 -92.7372 36° Northeast 543 625 33,000  Level Memphis Center
09:55AM 33.3386 -92.6100 52° Northeast 546 628 33,000  Level Memphis Center
09:56AM 33.4369 -92.4731 49° Northeast 540 621 33,000  Level Memphis Center
09:57AM 33.5289 -92.3383 51° Northeast 532 612 33,000  Level Memphis Center
09:58AM 33.6208 -92.1983 52° Northeast 526 605 33,000  Level Memphis Center
09:59AM 33.7083 -92.0603 53° Northeast 519 597 33,000  Level Memphis Center
10:00AM 33.7978 -91.9219 52° Northeast 525 604 33,000  Level Memphis Center
10:01AM 33.8869 -91.7836 52° Northeast 525 604 33,000  Level Memphis Center
10:02AM 33.9825 -91.6322 53° Northeast 518 596 33,000  Level Memphis Center
10:03AM 34.0589 -91.5081 53° Northeast 518 596 33,000  Level Memphis Center
10:04AM 34.1478 -91.3711 52° Northeast 518 596 33,000  Level Memphis Center
10:05AM 34.2364 -91.2289 53° Northeast 518 596 33,000  Level Memphis Center
10:06AM 34.3228 -91.0939 52° Northeast 518 596 33,000  Level Memphis Center
10:07AM 34.4133 -90.9564 51° Northeast 524 603 33,000  Level Memphis Center
10:08AM 34.5017 -90.8158 53° Northeast 519 597 33,000  Level Memphis Center
10:09AM 34.6106 -90.6800 46° Northeast 513 590 33,000  Level Memphis Center
10:10AM 34.7172 -90.5642 42° Northeast 503 579 33,000  Level Memphis Center
10:11AM 34.8217 -90.4481 42° Northeast 509 586 33,000  Level Memphis Center
10:12AM 34.9261 -90.3267 44° Northeast 515 593 33,000  Level Memphis Center
10:13AM 35.0114 -90.1847 54° Northeast 515 593 33,000  Level Memphis Center
10:14AM 35.0944 -90.0372 55° Northeast 522 601 33,000  Level Memphis Center
10:15AM 35.1672 -89.9025 57° Northeast 527 606 33,000  Level Memphis Center
10:16AM 35.2458 -89.7519 57° Northeast 527 606 33,000  Level Memphis Center
10:17AM 35.3242 -89.6011 57° Northeast 522 601 33,000  Level Memphis Center
10:18AM 35.4025 -89.4528 57° Northeast 522 601 33,000  Level Memphis Center
10:19AM 35.4867 -89.2936 57° Northeast 522 601 33,000  Level Memphis Center
10:25AM 35.9020 -88.4960 57° Northeast 523 602 33,000  Level FlightAware
10:25AM 35.9610 -88.3830 57° Northeast 521 600 33,000  Level FlightAware
10:26AM 36.0200 -88.2660 58° Northeast 519 597 33,000  Level FlightAware
10:27AM 36.0670 -88.1710 59° Northeast 519 597 33,000  Level FlightAware
10:28AM 36.1250 -88.0380 62° Northeast 521 600 33,000  Level FlightAware
10:28AM 36.1760 -87.9100 64° Northeast 521 600 33,000  Level FlightAware
10:29AM 36.2220 -87.7920 64° Northeast 520 598 33,000  Level FlightAware
10:30AM 36.2690 -87.6680 65° Northeast 520 598 33,000  Level FlightAware
10:31AM 36.3100 -87.5610 65° Northeast 517 595 33,000  Level FlightAware
10:31AM 36.3520 -87.4530 64° Northeast 515 593 33,000  Level FlightAware
10:32AM 36.3960 -87.3370 65° Northeast 514 592 33,000  Level FlightAware
10:33AM 36.4370 -87.2300 65° Northeast 514 592 33,000  Level FlightAware
10:33AM 36.4780 -87.1220 65° Northeast 514 592 33,000  Level FlightAware
10:34AM 36.5180 -87.0180 64° Northeast 513 590 33,000  Level FlightAware
10:35AM 36.5650 -86.8950 65° Northeast 512 589 33,000  Level FlightAware
10:35AM 36.6100 -86.7770 65° Northeast 509 586 33,000  Level FlightAware
10:36AM 36.6229 -86.7415 66° East 509 586 33,000  Level FlightAware ADS-B
10:36AM 36.6533 -86.6606 65° Northeast 508 585 33,000  Level FlightAware ADS-B
10:37AM 36.6840 -86.5788 65° Northeast 506 582 33,000  Level FlightAware ADS-B
10:37AM 36.7149 -86.4965 65° Northeast 505 581 33,000  Level FlightAware ADS-B
10:38AM 36.7449 -86.4162 65° Northeast 505 581 33,000  Level FlightAware ADS-B
10:38AM 36.7747 -86.3358 65° Northeast 504 580 33,000  Level FlightAware ADS-B
10:39AM 36.8044 -86.2558 65° Northeast 503 579 33,000  Level FlightAware ADS-B
10:39AM 36.8336 -86.1770 65° Northeast 502 578 33,000  Level FlightAware ADS-B
10:40AM 36.8630 -86.0975 65° Northeast 501 577 33,000  Level FlightAware ADS-B
10:40AM 36.8924 -86.0178 65° Northeast 501 577 33,000  Level FlightAware ADS-B
10:41AM 36.9420 -85.8830 65° Northeast 500 575 33,000  Level FlightAware
10:42AM 37.0000 -85.7240 65° Northeast 500 575 33,000  Level FlightAware
10:42AM 37.0107 -85.6946 65° Northeast 502 578 33,000  Level FlightAware ADS-B
10:43AM 37.0423 -85.6079 65° Northeast 502 578 33,000  Level FlightAware ADS-B
10:43AM 37.0729 -85.5236 66° East 500 575 33,000  Level FlightAware ADS-B
10:44AM 37.1029 -85.4405 66° East 499 574 33,000  Level FlightAware ADS-B
10:44AM 37.1327 -85.3580 66° East 499 574 33,000  Level FlightAware ADS-B
10:45AM 37.1611 -85.2789 66° East 498 573 33,000  Level FlightAware ADS-B
10:45AM 37.1898 -85.1989 66° East 498 573 33,000  Level FlightAware ADS-B
10:46AM 37.2187 -85.1182 66° East 497 572 33,000  Level FlightAware ADS-B
10:46AM 37.2470 -85.0386 66° East 497 572 33,000  Level FlightAware ADS-B
10:47AM 37.2756 -84.9582 66° East 497 572 33,000  Level FlightAware ADS-B
10:47AM 37.3044 -84.8770 66° East 497 572 33,000  Level FlightAware ADS-B
10:48AM 37.3328 -84.7968 66° East 497 572 33,000  Level FlightAware ADS-B
10:48AM 37.3612 -84.7165 66° East 500 575 33,000  Level FlightAware ADS-B
10:49AM 37.3894 -84.6366 66° East 501 577 33,000  Level FlightAware ADS-B
10:49AM 37.4179 -84.5553 66° East 502 578 33,000  Level FlightAware ADS-B
10:50AM 37.4461 -84.4751 66° East 501 577 33,000  Level FlightAware ADS-B
10:50AM 37.4744 -84.3941 66° East 501 577 33,000  Level FlightAware ADS-B
10:51AM 37.5038 -84.3096 66° East 501 577 33,000  Level FlightAware ADS-B
10:52AM 37.5439 -84.1940 66° East 500 575 33,000  Level FlightAware ADS-B
10:52AM 37.5751 -84.1039 66° East 499 574 33,000  Level FlightAware ADS-B
10:53AM 37.6027 -84.0237 67° East 500 575 33,000  Level FlightAware ADS-B
10:53AM 37.6329 -83.9360 66° East 499 574 33,000  Level FlightAware ADS-B
10:54AM 37.6608 -83.8545 67° East 499 574 33,000  Level FlightAware ADS-B
10:54AM 37.6885 -83.7735 67° East 498 573 33,000  Level FlightAware ADS-B
10:55AM 37.7243 -83.6686 67° East 497 572 33,000  Level FlightAware ADS-B
10:56AM 37.7595 -83.5650 67° East 497 572 33,000  Level FlightAware ADS-B
10:56AM 37.7871 -83.4839 67° East 498 573 33,000  Level FlightAware ADS-B
10:57AM 37.8178 -83.3929 67° East 499 574 33,000  Level FlightAware ADS-B
10:58AM 37.8841 -83.1951 67° East 501 577 33,000  Level FlightAware ADS-B
10:59AM 37.9490 -83.0010 67° East 500 575 33,000  Level FlightAware
11:00AM 37.9850 -82.8940 67° East 499 574 33,000  Level FlightAware
11:00AM 38.0078 -82.8236 68° East 500 575 33,000  Level FlightAware ADS-B
11:01AM 38.0445 -82.7126 67° East 499 574 33,000  Level FlightAware ADS-B
11:02AM 38.0960 -82.5550 67° East 502 578 33,000  Level FlightAware
11:03AM 38.1310 -82.4480 67° East 503 579 33,000  Level FlightAware
11:03AM 38.1710 -82.3270 67° East 502 578 33,000  Level FlightAware
11:04AM 38.2060 -82.2180 68° East 503 579 33,000  Level FlightAware
11:05AM 38.2470 -82.0920 67° East 504 580 33,000  Level FlightAware
11:05AM 38.2820 -81.9820 68° East 504 580 33,000  Level FlightAware
11:06AM 38.3054 -81.9086 68° East 505 581 33,000  Level FlightAware ADS-B
11:07AM 38.3510 -81.7520 70° East 501 577 33,000  Level FlightAware
11:08AM 38.3710 -81.6360 78° East 502 578 33,000  Level FlightAware
11:08AM 38.4020 -81.5060 73° East 501 577 33,000  Level FlightAware
11:09AM 38.4270 -81.3940 74° East 500 575 33,000  Level FlightAware
11:10AM 38.4530 -81.2650 76° East 499 574 33,000  Level FlightAware
11:10AM 38.4740 -81.1530 76° East 499 574 33,000  Level FlightAware
11:11AM 38.4960 -81.0380 76° East 497 572 33,000  Level FlightAware
11:12AM 38.5210 -80.9080 76° East 496 571 33,000  Level FlightAware
11:13AM 38.5510 -80.7550 76° East 496 571 33,000  Level FlightAware
11:13AM 38.5730 -80.6410 76° East 497 572 33,000  Level FlightAware
11:14AM 38.5970 -80.5150 76° East 498 573 33,000  Level FlightAware
11:15AM 38.6200 -80.3960 76° East 500 575 33,000  Level FlightAware
11:16AM 38.6440 -80.2670 77° East 499 574 33,000  Level FlightAware
11:16AM 38.6660 -80.1510 76° East 500 575 33,000  Level FlightAware
11:17AM 38.6870 -80.0370 77° East 501 577 33,000  Level FlightAware
11:18AM 38.7080 -79.9240 77° East 501 577 33,000  Level FlightAware
11:18AM 38.7330 -79.7910 76° East 502 578 33,000  Level FlightAware
11:19AM 38.7530 -79.6790 77° East 503 579 33,000  Level FlightAware
11:20AM 38.7770 -79.5510 76° East 503 579 33,000  Level FlightAware
11:20AM 38.7970 -79.4380 77° East 505 581 33,000  Level FlightAware
11:21AM 38.8180 -79.3230 77° East 506 582 33,000  Level FlightAware
11:22AM 38.8480 -79.1870 74° East 507 583 33,000  Level FlightAware
11:22AM 38.8880 -79.0800 64° Northeast 508 585 33,000  Level FlightAware
11:23AM 38.9400 -78.9550 62° Northeast 507 583 33,000  Level FlightAware
11:24AM 38.9830 -78.8500 62° Northeast 508 585 33,000  Level FlightAware
11:25AM 39.0280 -78.7400 62° Northeast 507 583 33,000  Level FlightAware
11:25AM 39.0750 -78.6240 62° Northeast 508 585 33,000  Level FlightAware
11:26AM 39.1180 -78.5180 62° Northeast 508 585 33,000  Level FlightAware
11:27AM 39.1670 -78.3970 62° Northeast 509 586 33,000  Level FlightAware
11:27AM 39.2100 -78.2900 63° Northeast 509 586 33,000  Level FlightAware
11:28AM 39.2600 -78.1660 62° Northeast 510 587 33,000  Level FlightAware
11:28AM 39.2759 -78.1248 63° Northeast 510 587 33,000  Level FlightAware ADS-B
11:29AM 39.3166 -78.0225 63° Northeast 511 588 33,000  Level FlightAware ADS-B
11:30AM 39.3502 -77.9378 63° Northeast 513 590 33,000  Level FlightAware ADS-B
11:30AM 39.3835 -77.8538 63° Northeast 514 592 33,000  Level FlightAware ADS-B
11:30AM 39.4099 -77.7917 61° Northeast 514 592 33,000  Level FlightAware ADS-B
11:31AM 39.4513 -77.7088 57° Northeast 514 592 33,000  Level FlightAware ADS-B
11:31AM 39.4919 -77.6277 57° Northeast 515 593 33,000  Level FlightAware ADS-B
11:32AM 39.5329 -77.5440 58° Northeast 515 593 33,000  Level FlightAware ADS-B
11:33AM 39.5718 -77.4630 58° Northeast 516 594 33,000  Level FlightAware ADS-B
11:33AM 39.6114 -77.3797 58° Northeast 515 593 33,000  Level FlightAware ADS-B
11:34AM 39.6493 -77.3014 58° Northeast 515 593 33,000  Level FlightAware ADS-B
11:34AM 39.6874 -77.2228 58° Northeast 517 595 33,000  Level FlightAware ADS-B
11:35AM 39.7265 -77.1416 58° Northeast 517 595 33,000  Level FlightAware ADS-B
11:35AM 39.7645 -77.0623 58° Northeast 518 596 33,000  Level FlightAware ADS-B
11:36AM 39.8074 -76.9723 58° Northeast 517 595 33,000  Level FlightAware ADS-B
11:36AM 39.8480 -76.8871 58° Northeast 516 594 33,000  Level FlightAware ADS-B
11:37AM 39.8856 -76.8077 58° Northeast 517 595 33,000  Level FlightAware ADS-B
11:37AM 39.9240 -76.7260 58° Northeast 516 594 33,000  Level FlightAware
11:37AM 39.9346 -76.7042 58° Northeast 517 595 33,000  Level FlightAware ADS-B
11:38AM 39.9722 -76.6246 58° Northeast 518 596 33,000  Level FlightAware ADS-B
11:38AM 40.0103 -76.5438 58° Northeast 519 597 33,000  Level FlightAware ADS-B
11:39AM 40.0489 -76.4618 58° Northeast 521 600 33,000  Level FlightAware ADS-B
11:39AM 40.0865 -76.3815 59° Northeast 521 600 33,000  Level FlightAware ADS-B
11:40AM 40.1251 -76.2988 59° Northeast 522 601 33,000  Level FlightAware ADS-B
11:40AM 40.1629 -76.2180 59° Northeast 522 601 33,000  Level FlightAware ADS-B
11:41AM 40.2010 -76.1361 59° Northeast 523 602 33,000  Level FlightAware ADS-B
11:41AM 40.2405 -76.0509 59° Northeast 524 603 33,000  Level FlightAware ADS-B
11:42AM 40.2781 -75.9695 59° Northeast 524 603 33,000  Level FlightAware ADS-B
11:42AM 40.3165 -75.8864 59° Northeast 525 604 33,000  Level FlightAware ADS-B
11:43AM 40.3559 -75.8009 59° Northeast 525 604 33,000  Level FlightAware ADS-B
11:43AM 40.3934 -75.7190 59° Northeast 527 606 33,000  Level FlightAware ADS-B
11:44AM 40.4313 -75.6364 59° Northeast 528 608 33,000 240 Level FlightAware ADS-B
11:44AM 40.4701 -75.5514 59° Northeast 530 610 33,300 960 Climbing FlightAware ADS-B
11:45AM 40.5084 -75.4670 59° Northeast 528 608 34,000 1,320 Climbing FlightAware ADS-B
11:45AM 40.5470 -75.3821 59° Northeast 525 604 34,700 960 Climbing FlightAware ADS-B
11:46AM 40.5842 -75.2999 59° Northeast 527 606 35,000 240 Climbing FlightAware ADS-B
11:46AM 40.6233 -75.2134 59° Northeast 525 604 35,000  Level FlightAware ADS-B
11:47AM 40.6608 -75.1303 59° Northeast 525 604 35,000  Level FlightAware ADS-B
11:48AM 40.7004 -75.0421 59° Northeast 523 602 35,000  Level FlightAware ADS-B
11:48AM 40.7372 -74.9597 59° Northeast 522 601 35,000  Level FlightAware ADS-B
11:49AM 40.7749 -74.8754 59° Northeast 522 601 35,000  Level FlightAware ADS-B
11:49AM 40.8127 -74.7905 60° Northeast 521 600 35,000  Level FlightAware ADS-B
11:50AM 40.8521 -74.7015 60° Northeast 521 600 35,000  Level FlightAware ADS-B
11:50AM 40.8891 -74.6182 60° Northeast 522 601 35,000  Level FlightAware ADS-B
11:51AM 40.9264 -74.5334 60° Northeast 522 601 35,000  Level FlightAware ADS-B
11:51AM 40.9636 -74.4489 60° Northeast 523 602 35,000  Level FlightAware ADS-B
11:52AM 41.0008 -74.3642 60° Northeast 522 601 35,000  Level FlightAware ADS-B
11:52AM 41.0375 -74.2806 60° Northeast 522 601 35,000  Level FlightAware ADS-B
11:53AM 41.0747 -74.1954 60° Northeast 523 602 35,000  Level FlightAware ADS-B
11:53AM 41.1115 -74.1110 60° Northeast 524 603 35,000  Level FlightAware ADS-B
11:54AM 41.1479 -74.0269 60° Northeast 523 602 35,000  Level FlightAware ADS-B
11:54AM 41.1848 -73.9415 60° Northeast 523 602 35,000  Level FlightAware ADS-B
11:55AM 41.2216 -73.8557 60° Northeast 524 603 35,000  Level FlightAware ADS-B
11:55AM 41.2422 -73.8080 60° Northeast 524 603 35,000  Level FlightAware ADS-B
11:55AM 41.2582 -73.7709 60° Northeast 524 603 35,000  Level FlightAware ADS-B
11:56AM 41.2851 -73.7096 60° Northeast 523 602 35,000  Level FlightAware ADS-B
11:56AM 41.2976 -73.6854 55° Northeast 517 595 35,000  Level FlightAware ADS-B
11:56AM 41.3102 -73.6650 51° Northeast 512 589 35,000  Level FlightAware ADS-B
11:56AM 41.3322 -73.6362 45° Northeast 504 580 35,000  Level FlightAware ADS-B
11:56AM 41.3690 -73.5963 39° Northeast 505 581 35,000  Level FlightAware ADS-B
11:57AM 41.3903 -73.5680 45° Northeast 513 590 35,000  Level FlightAware ADS-B
11:57AM 41.4164 -73.5203 54° Northeast 528 608 35,000  Level FlightAware ADS-B
11:57AM 41.4528 -73.4352 60° Northeast 531 611 35,000  Level FlightAware ADS-B
11:58AM 41.4890 -73.3485 61° Northeast 530 610 35,000  Level FlightAware ADS-B
11:59AM 41.5307 -73.2483 61° Northeast 530 610 35,000  Level FlightAware ADS-B
11:59AM 41.5699 -73.1541 61° Northeast 529 609 35,000  Level FlightAware ADS-B
12:00PM 41.6070 -73.0650 61° Northeast 528 608 35,000  Level FlightAware ADS-B
12:00PM 41.6540 -72.9530 61° Northeast 528 608 35,000  Level FlightAware
12:01PM 41.6960 -72.8509 61° Northeast 528 608 35,000  Level FlightAware ADS-B
12:01PM 41.7318 -72.7644 61° Northeast 528 608 35,000  Level FlightAware ADS-B
12:02PM 41.7711 -72.6694 61° Northeast 526 605 35,000  Level FlightAware ADS-B
12:02PM 41.8074 -72.5810 61° Northeast 527 606 35,000  Level FlightAware ADS-B
12:03PM 41.8690 -72.4310 61° Northeast 526 605 35,000  Level FlightAware
12:05PM 41.9480 -72.2370 61° Northeast 528 608 35,000  Level FlightAware
12:05PM 42.0050 -72.0950 62° Northeast 530 610 35,000  Level FlightAware
12:06PM 42.0480 -71.9870 62° Northeast 532 612 35,000  Level FlightAware
12:07PM 42.0970 -71.8650 62° Northeast 533 613 35,000  Level FlightAware
12:07PM 42.1490 -71.7350 62° Northeast 534 615 35,000  Level FlightAware
12:08PM 42.1960 -71.6180 62° Northeast 533 613 35,000  Level FlightAware
12:09PM 42.2490 -71.4840 62° Northeast 533 613 35,000  Level FlightAware
12:09PM 42.2950 -71.3680 62° Northeast 533 613 35,000  Level FlightAware
12:10PM 42.3410 -71.2500 62° Northeast 533 613 35,000  Level FlightAware
12:11PM 42.3910 -71.1230 62° Northeast 532 612 35,000  Level FlightAware
12:12PM 42.4370 -71.0040 62° Northeast 532 612 35,000  Level FlightAware
12:12PM 42.4900 -70.8670 62° Northeast 532 612 35,000  Level FlightAware
12:13PM 42.5350 -70.7490 63° Northeast 531 611 35,000  Level FlightAware
12:14PM 42.5820 -70.6290 62° Northeast 530 610 35,000  Level FlightAware
12:14PM 42.6300 -70.5030 63° Northeast 529 609 35,000  Level FlightAware
12:15PM 42.6760 -70.3820 63° Northeast 530 610 35,000  Level FlightAware
12:16PM 42.7260 -70.2490 63° Northeast 530 610 35,000  Level FlightAware
12:16PM 42.7720 -70.1280 63° Northeast 528 608 35,000  Level FlightAware
12:17PM 42.8160 -70.0090 63° Northeast 525 604 35,000  Level FlightAware
12:18PM 42.8650 -69.8790 63° Northeast 525 604 35,000  Level FlightAware
12:19PM 42.9080 -69.7640 63° Northeast 525 604 35,000  Level FlightAware
12:19PM 42.9560 -69.6360 63° Northeast 520 598 35,000  Level FlightAware
12:20PM 42.9980 -69.5210 63° Northeast 517 595 35,000  Level FlightAware
12:21PM 43.0420 -69.4020 63° Northeast 515 593 35,000  Level FlightAware
12:21PM 43.0900 -69.2710 63° Northeast 513 590 35,000  Level FlightAware
12:22PM 43.1330 -69.1530 63° Northeast 517 595 35,000  Level FlightAware
12:23PM 43.1800 -69.0220 64° Northeast 513 590 35,000  Level FlightAware
12:23PM 43.2210 -68.9100 63° Northeast 512 589 35,000  Level FlightAware
12:24PM 43.2630 -68.7930 64° Northeast 512 589 35,000  Level FlightAware
12:25PM 43.3040 -68.6770 64° Northeast 512 589 35,000  Level FlightAware
12:26PM 43.3540 -68.5400 63° Northeast 512 589 35,000  Level FlightAware
12:26PM 43.3970 -68.4210 64° Northeast 512 589 35,000  Level FlightAware
12:27PM 43.4340 -68.3230 63° Northeast 512 589 35,000  Level FlightAware
12:28PM 43.4950 -68.1390 65° Northeast 513 590 35,000  Level FlightAware
12:29PM 43.5360 -68.0210 64° Northeast 515 593 35,000  Level FlightAware
12:29PM 43.5780 -67.9020 64° Northeast 513 590 35,000  Level FlightAware
12:30PM 43.6400 -67.7210 65° Northeast 516 594 35,000  Level FlightAware
12:31PM 43.6810 -67.6030 64° Northeast 513 590 35,000  Level FlightAware
12:32PM 43.7230 -67.4820 64° Northeast 513 590 35,000  Level FlightAware
12:32PM 43.7580 -67.3780 65° Northeast 513 590 35,000  Level FlightAware
12:33PM 43.8090 -67.2300 64° Northeast 512 589 35,000  Level FlightAware
12:34PM 43.8550 -67.0920 65° Northeast 511 588 35,000  Level FlightAware
12:34PM 43.8960 -66.9710 65° Northeast 511 588 35,000  Level FlightAware
12:35PM 43.9350 -66.8540 65° Northeast 510 587 35,000  Level FlightAware
12:36PM 43.9790 -66.7210 65° Northeast 512 589 35,000  Level FlightAware
12:36PM 44.0200 -66.5990 65° Northeast 511 588 35,000  Level FlightAware
12:37PM 44.0650 -66.4610 66° East 516 594 35,000  Level FlightAware
12:38PM 44.1050 -66.3400 65° Northeast 517 595 35,000  Level FlightAware
12:39PM 44.1500 -66.2040 65° Northeast 516 594 35,000  Level FlightAware
12:39PM 44.1900 -66.0810 66° East 516 594 35,000  Level FlightAware
12:40PM 44.2290 -65.9610 66° East 516 594 35,000  Level FlightAware
12:41PM 44.2720 -65.8270 66° East 517 595 35,000  Level FlightAware
12:41PM 44.3120 -65.7020 66° East 517 595 35,000  Level FlightAware
12:42PM 44.3540 -65.5700 66° East 517 595 35,000  Level FlightAware
12:43PM 44.3940 -65.4450 66° East 516 594 35,000  Level FlightAware
12:43PM 44.4320 -65.3240 66° East 515 593 35,000  Level FlightAware
12:44PM 44.4750 -65.1890 66° East 515 593 35,000  Level FlightAware
12:45PM 44.5110 -65.0720 67° East 511 588 35,000  Level FlightAware
12:46PM 44.5510 -64.9430 66° East 513 590 35,000  Level FlightAware
12:46PM 44.5950 -64.8040 66° East 514 592 35,000  Level FlightAware
12:47PM 44.6330 -64.6790 67° East 515 593 35,000  Level FlightAware
12:48PM 44.6750 -64.5420 67° East 514 592 35,000  Level FlightAware
12:48PM 44.7130 -64.4190 66° East 515 593 35,000  Level FlightAware
12:49PM 44.7550 -64.2800 67° East 514 592 35,000  Level FlightAware
12:50PM 44.7930 -64.1550 67° East 513 590 35,000  Level FlightAware
12:51PM 44.8340 -64.0180 67° East 513 590 35,000  Level FlightAware
12:51PM 44.8710 -63.8920 67° East 513 590 35,000  Level FlightAware
12:52PM 44.9070 -63.7720 67° East 514 592 35,000  Level FlightAware
12:52PM 44.9390 -63.6660 67° East 514 592 35,000  Level FlightAware
12:53PM 44.9840 -63.5130 67° East 513 590 35,000  Level FlightAware
12:54PM 45.0240 -63.3750 68° East 514 592 35,000  Level FlightAware
12:55PM 45.0570 -63.2630 67° East 514 592 35,000  Level FlightAware
12:55PM 44.9030 -63.7860 248° West 515 593 35,000  Level FlightAware
12:56PM 44.9370 -63.6710 67° East 515 593 35,000  Level FlightAware
12:57PM 44.9750 -63.5450 67° East 515 593 35,000  Level FlightAware
12:58PM 45.0140 -63.4130 67° East 515 593 35,000  Level FlightAware
12:58PM 45.0460 -63.3070 67° East 515 593 35,000  Level FlightAware
12:59PM 45.0780 -63.2020 67° East 515 593 35,000  Level FlightAware
01:00PM 45.1090 -63.0960 67° East 515 593 35,000  Level FlightAware
01:00PM 45.1410 -62.9900 67° East 515 593 35,000  Level FlightAware
01:01PM 45.1810 -62.8580 67° East 515 593 35,000  Level FlightAware
01:02PM 45.2120 -62.7520 67° East 515 593 35,000  Level FlightAware
01:02PM 45.2440 -62.6460 67° East 515 593 35,000  Level FlightAware
01:03PM 45.2760 -62.5410 67° East 515 593 35,000  Level FlightAware
01:04PM 45.3070 -62.4340 68° East 515 593 35,000  Level FlightAware
01:05PM 45.3470 -62.3020 67° East 515 593 35,000  Level FlightAware
01:05PM 45.3780 -62.1960 67° East 515 593 35,000  Level FlightAware
01:06PM 45.4100 -62.0900 67° East 515 593 35,000  Level FlightAware
01:07PM 45.6930 -60.9720 70° East 517 595 35,000  Level FlightAware
01:07PM 45.7260 -60.8460 69° East 515 593 35,000  Level FlightAware
01:08PM 45.7650 -60.6960 70° East 513 590 35,000  Level FlightAware
01:09PM 45.7990 -60.5680 69° East 513 590 35,000  Level FlightAware
01:09PM 45.8340 -60.4300 70° East 512 589 35,000  Level FlightAware
01:10PM 45.8670 -60.3020 70° East 514 592 35,000  Level FlightAware
01:11PM 45.9000 -60.1740 70° East 516 594 35,000  Level FlightAware
01:12PM 45.9370 -60.0290 70° East 516 594 35,000  Level FlightAware
01:12PM 45.9700 -59.8980 70° East 518 596 35,000  Level FlightAware
01:13PM 46.0030 -59.7680 70° East 518 596 35,000  Level FlightAware
01:14PM 46.0390 -59.6260 70° East 519 597 35,000  Level FlightAware
01:14PM 46.0710 -59.4960 70° East 519 597 35,000  Level FlightAware
01:15PM 46.1080 -59.3480 70° East 519 597 35,000  Level FlightAware
01:16PM 46.1400 -59.2170 71° East 519 597 35,000  Level FlightAware
01:16PM 46.1720 -59.0850 71° East 521 600 35,000  Level FlightAware
01:17PM 46.2060 -58.9430 71° East 524 603 35,000  Level FlightAware
01:18PM 46.2390 -58.8100 70° East 524 603 35,000  Level FlightAware
01:19PM 46.2750 -58.6570 71° East 525 604 35,000  Level FlightAware
01:19PM 46.3070 -58.5240 71° East 526 605 35,000  Level FlightAware
01:20PM 46.3380 -58.3930 71° East 527 606 35,000  Level FlightAware
01:21PM 46.3730 -58.2470 71° East 526 605 35,000  Level FlightAware
01:21PM 46.4040 -58.1110 72° East 526 605 35,000  Level FlightAware
01:22PM 46.4450 -57.9370 71° East 527 606 35,000  Level FlightAware
01:23PM 46.4860 -57.7570 72° East 527 606 35,000  Level FlightAware
01:24PM 46.5170 -57.6270 71° East 526 605 35,000  Level FlightAware
01:24PM 46.5430 -57.5130 72° East 526 605 35,000  Level FlightAware
01:25PM 46.5770 -57.3710 71° East 526 605 35,000  Level FlightAware
01:26PM 46.6140 -57.1920 73° East 523 602 35,000  Level FlightAware
01:27PM 46.6490 -57.0360 72° East 523 602 35,000  Level FlightAware
01:27PM 46.6780 -56.9030 72° East 522 601 35,000  Level FlightAware
01:28PM 46.7070 -56.7730 72° East 523 602 35,000  Level FlightAware
01:29PM 46.7410 -56.6220 72° East 524 603 35,000  Level FlightAware
01:29PM 46.7720 -56.4840 72° East 524 603 35,000  Level FlightAware
01:30PM 46.8060 -56.3320 72° East 524 603 35,000  Level FlightAware
01:31PM 46.8350 -56.1990 72° East 523 602 35,000  Level FlightAware
01:32PM 46.8680 -56.0470 72° East 525 604 35,000  Level FlightAware
01:32PM 46.8970 -55.9140 72° East 526 605 35,000  Level FlightAware
01:33PM 46.9270 -55.7760 72° East 526 605 35,000  Level FlightAware
01:34PM 46.9590 -55.6270 72° East 526 605 35,000  Level FlightAware
01:34PM 46.9880 -55.4910 73° East 527 606 35,000  Level FlightAware
01:35PM 47.0170 -55.3520 73° East 527 606 35,000  Level FlightAware
01:36PM 47.0490 -55.1980 73° East 529 609 35,000  Level FlightAware
01:36PM 47.0780 -55.0590 73° East 529 609 35,000  Level FlightAware
01:37PM 47.1070 -54.9220 73° East 528 608 35,000  Level FlightAware
01:38PM 47.1410 -54.7550 73° East 526 605 35,000  Level FlightAware
01:39PM 47.1700 -54.6150 73° East 524 603 35,000  Level FlightAware
01:39PM 47.1970 -54.4810 73° East 524 603 35,000  Level FlightAware
01:40PM 47.2270 -54.3290 74° East 524 603 35,000  Level FlightAware
01:41PM 47.2550 -54.1890 74° East 525 604 35,000  Level FlightAware
01:41PM 47.2820 -54.0550 73° East 525 604 35,000  Level FlightAware
01:42PM 47.3130 -53.8970 74° East 526 605 35,000  Level FlightAware
01:43PM 47.3400 -53.7590 74° East 527 606 35,000  Level FlightAware
01:44PM 47.3690 -53.6080 74° East 529 609 35,000  Level FlightAware
01:44PM 47.3960 -53.4690 74° East 528 608 35,000  Level FlightAware
01:45PM 47.4220 -53.3320 74° East 529 609 35,000  Level FlightAware
01:46PM 47.4520 -53.1710 75° East 531 611 35,000  Level FlightAware
01:46PM 47.4780 -53.0330 74° East 532 612 35,000  Level FlightAware
01:47PM 47.5080 -52.8740 74° East 533 613 35,000  Level FlightAware
01:48PM 47.5340 -52.7330 75° East 536 617 35,000  Level FlightAware
01:48PM 47.5600 -52.5930 75° East 538 619 35,000  Level FlightAware
01:49PM 47.5890 -52.4300 75° East 540 621 35,000  Level FlightAware
01:50PM 47.6140 -52.2940 75° East 542 624 35,000  Level FlightAware
01:50PM 47.6400 -52.1480 75° East 541 623 35,000  Level FlightAware
01:51PM 47.6670 -51.9960 75° East 541 623 35,000  Level FlightAware
01:52PM 47.6940 -51.8430 75° East 541 623 35,000  Level FlightAware
01:53PM 47.7230 -51.6730 76° East 541 623 35,000  Level FlightAware
01:53PM 47.7490 -51.5290 75° East 542 624 35,000  Level FlightAware
01:54PM 47.6170 -52.2750 256° West 542 624 35,000  Level FlightAware
01:55PM 47.6480 -52.1020 75° East 542 624 35,000  Level FlightAware
01:56PM 47.6770 -51.9380 75° East 542 624 35,000  Level FlightAware
01:57PM 47.7000 -51.8150 74° East 542 624 35,000  Level FlightAware
01:57PM 47.7220 -51.6930 75° East 542 624 35,000  Level FlightAware
01:58PM 47.7440 -51.5700 75° East 542 624 35,000  Level FlightAware
01:59PM 47.7660 -51.4480 75° East 542 624 35,000  Level FlightAware
02:00PM 47.7930 -51.2950 75° East 542 624 35,000  Level FlightAware
02:00PM 47.8150 -51.1720 75° East 542 624 35,000  Level FlightAware
02:01PM 47.8370 -51.0500 75° East 542 624 35,000  Level FlightAware
02:02PM 47.8590 -50.9270 75° East 542 624 35,000  Level FlightAware
02:02PM 47.8810 -50.8040 75° East 542 624 35,000  Level FlightAware
02:03PM 47.9090 -50.6500 75° East 542 624 35,000  Level FlightAware
02:04PM 47.9310 -50.5280 75° East 542 624 35,000  Level FlightAware
02:04PM 47.9530 -50.4050 75° East 542 624 35,000  Level FlightAware
02:06PM 48.3667 -48.7667 75° East 570 656 35,000  Level Gander Center
02:06PM 48.4000 -48.7167 45° Northeast 570 656 35,000  Level Gander Center
02:07PM 48.4500 -48.5500 66° East 570 656 35,000  Level Gander Center
02:08PM 48.5333 -48.3500 58° Northeast 570 656 35,000  Level Gander Center
02:08PM 48.5500 -48.2833 69° East 570 656 35,000  Level Gander Center
02:09PM 48.6000 -48.1167 66° East 570 656 35,000  Level Gander Center
02:10PM 48.6833 -47.9167 58° Northeast 570 656 35,000  Level Gander Center
02:10PM 48.6833 -47.8500 90° East 570 656 35,000  Level Gander Center
02:11PM 48.7667 -47.6500 58° Northeast 570 656 35,000  Level Gander Center
02:12PM 48.8333 -47.4167 66° East 570 656 35,000  Level Gander Center
02:13PM 48.9167 -47.2167 58° Northeast 570 656 35,000  Level Gander Center
02:14PM 48.9667 -47.0000 71° East 570 656 35,000  Level Gander Center
02:15PM 49.0500 -46.7833 60° Northeast 570 656 35,000  Level Gander Center
02:17PM 49.1380 -46.5146 63° Northeast  Level FlightAware Approximate
02:24PM 49.5687 -45.1568 64° Northeast  Level FlightAware Approximate
02:25PM 49.6289 -44.9609 65° Northeast  Level FlightAware Approximate
02:26PM 49.6888 -44.7645 65° Northeast  Level FlightAware Approximate
02:27PM 49.7484 -44.5677 65° Northeast  Level FlightAware Approximate
02:28PM 49.8076 -44.3703 65° Northeast  Level FlightAware Approximate
02:29PM 49.8665 -44.1725 65° Northeast  Level FlightAware Approximate
02:30PM 49.9250 -43.9742 65° Northeast  Level FlightAware Approximate
02:31PM 49.9832 -43.7754 65° Northeast  Level FlightAware Approximate
02:32PM 50.0411 -43.5761 66° East  Level FlightAware Approximate
02:33PM 50.0986 -43.3763 66° East  Level FlightAware Approximate
02:34PM 50.1558 -43.1761 66° East  Level FlightAware Approximate
02:35PM 50.2127 -42.9754 66° East  Level FlightAware Approximate
02:36PM 50.2691 -42.7742 66° East  Level FlightAware Approximate
02:37PM 50.3253 -42.5725 66° East  Level FlightAware Approximate
02:38PM 50.3811 -42.3703 67° East  Level FlightAware Approximate
02:39PM 50.4365 -42.1677 67° East  Level FlightAware Approximate
02:40PM 50.4916 -41.9646 67° East  Level FlightAware Approximate
02:41PM 50.5463 -41.7611 67° East  Level FlightAware Approximate
02:42PM 50.6007 -41.5570 67° East  Level FlightAware Approximate
02:43PM 50.6547 -41.3525 67° East  Level FlightAware Approximate
02:44PM 50.7084 -41.1475 67° East  Level FlightAware Approximate
02:45PM 50.7617 -40.9421 68° East  Level FlightAware Approximate
02:46PM 50.8146 -40.7362 68° East  Level FlightAware Approximate
02:47PM 50.8672 -40.5298 68° East  Level FlightAware Approximate
02:48PM 50.9194 -40.3229 68° East  Level FlightAware Approximate
02:49PM 50.9713 -40.1156 68° East  Level FlightAware Approximate
02:50PM 51.0138 -39.9033 77° East  Level FlightAware Approximate
02:51PM 51.0446 -39.6853 77° East  Level FlightAware Approximate
02:52PM 51.0750 -39.4670 77° East  Level FlightAware Approximate
02:53PM 51.1050 -39.2484 78° East  Level FlightAware Approximate
02:54PM 51.1346 -39.0295 78° East  Level FlightAware Approximate
02:55PM 51.1638 -38.8104 78° East  Level FlightAware Approximate
02:56PM 51.1926 -38.5910 78° East  Level FlightAware Approximate
02:57PM 51.2210 -38.3713 78° East  Level FlightAware Approximate
02:58PM 51.2489 -38.1513 78° East  Level FlightAware Approximate
02:59PM 51.2765 -37.9311 79° East  Level FlightAware Approximate
03:00PM 51.3036 -37.7106 79° East  Level FlightAware Approximate
03:01PM 51.3303 -37.4899 79° East  Level FlightAware Approximate
03:02PM 51.3566 -37.2689 79° East  Level FlightAware Approximate
03:03PM 51.3825 -37.0476 79° East  Level FlightAware Approximate
03:04PM 51.4080 -36.8261 79° East  Level FlightAware Approximate
03:05PM 51.4330 -36.6044 80° East  Level FlightAware Approximate
03:06PM 51.4576 -36.3824 80° East  Level FlightAware Approximate
03:07PM 51.4820 -36.1602 80° East  Level FlightAware Approximate
03:08PM 51.5061 -35.9379 80° East  Level FlightAware Approximate
03:09PM 51.5298 -35.7153 80° East  Level FlightAware Approximate
03:10PM 51.5531 -35.4924 80° East  Level FlightAware Approximate
03:11PM 51.5759 -35.2694 81° East  Level FlightAware Approximate
03:12PM 51.5983 -35.0461 81° East  Level FlightAware Approximate
03:13PM 51.6203 -34.8226 81° East  Level FlightAware Approximate
03:14PM 51.6418 -34.5989 81° East  Level FlightAware Approximate
03:15PM 51.6630 -34.3749 81° East  Level FlightAware Approximate
03:16PM 51.6837 -34.1508 81° East  Level FlightAware Approximate
03:17PM 51.7040 -33.9264 82° East  Level FlightAware Approximate
03:18PM 51.7241 -33.7020 82° East  Level FlightAware Approximate
03:19PM 51.7442 -33.4774 82° East  Level FlightAware Approximate
03:20PM 51.7640 -33.2526 82° East  Level FlightAware Approximate
03:21PM 51.7833 -33.0277 82° East  Level FlightAware Approximate
03:22PM 51.8021 -32.8025 82° East  Level FlightAware Approximate
03:23PM 51.8206 -32.5772 82° East  Level FlightAware Approximate
03:24PM 51.8386 -32.3517 83° East  Level FlightAware Approximate
03:25PM 51.8562 -32.1260 83° East  Level FlightAware Approximate
03:26PM 51.8733 -31.9001 83° East  Level FlightAware Approximate
03:27PM 51.8900 -31.6740 83° East  Level FlightAware Approximate
03:28PM 51.9063 -31.4478 83° East  Level FlightAware Approximate
03:29PM 51.9222 -31.2215 83° East  Level FlightAware Approximate
03:30PM 51.9376 -30.9949 84° East  Level FlightAware Approximate
03:31PM 51.9525 -30.7683 84° East  Level FlightAware Approximate
03:32PM 51.9671 -30.5414 84° East  Level FlightAware Approximate
03:33PM 51.9812 -30.3144 84° East  Level FlightAware Approximate
03:34PM 51.9949 -30.0873 84° East  Level FlightAware Approximate
03:35PM 52.0059 -29.8598 86° East  Level FlightAware Approximate
03:36PM 52.0150 -29.6320 86° East  Level FlightAware Approximate
03:37PM 52.0238 -29.4041 86° East  Level FlightAware Approximate
03:38PM 52.0321 -29.1761 87° East  Level FlightAware Approximate
03:39PM 52.0400 -28.9480 87° East  Level FlightAware Approximate
03:40PM 52.0474 -28.7198 87° East  Level FlightAware Approximate
03:41PM 52.0543 -28.4916 87° East  Level FlightAware Approximate
03:42PM 52.0609 -28.2633 87° East  Level FlightAware Approximate
03:43PM 52.0670 -28.0349 87° East  Level FlightAware Approximate
03:44PM 52.0726 -27.8065 88° East  Level FlightAware Approximate
03:45PM 52.0778 -27.5780 88° East  Level FlightAware Approximate
03:46PM 52.0826 -27.3494 88° East  Level FlightAware Approximate
03:47PM 52.0869 -27.1208 88° East  Level FlightAware Approximate
03:48PM 52.0908 -26.8922 88° East  Level FlightAware Approximate
03:49PM 52.0942 -26.6636 89° East  Level FlightAware Approximate
03:50PM 52.0972 -26.4349 89° East  Level FlightAware Approximate
03:51PM 52.0998 -26.2061 89° East  Level FlightAware Approximate
03:52PM 52.1019 -25.9774 89° East  Level FlightAware Approximate
03:53PM 52.1036 -25.7486 89° East  Level FlightAware Approximate
03:54PM 52.1048 -25.5198 89° East  Level FlightAware Approximate
03:55PM 52.1056 -25.2910 90° East  Level FlightAware Approximate
03:56PM 52.1059 -25.0622 90° East  Level FlightAware Approximate
03:57PM 52.1058 -24.8334 90° East  Level FlightAware Approximate
03:58PM 52.1053 -24.6046 90° East  Level FlightAware Approximate
03:59PM 52.1043 -24.3759 90° East  Level FlightAware Approximate
04:00PM 52.1029 -24.1471 90° East  Level FlightAware Approximate
04:01PM 52.1010 -23.9183 91° East  Level FlightAware Approximate
04:02PM 52.0987 -23.6896 91° East  Level FlightAware Approximate
04:03PM 52.0959 -23.4609 91° East  Level FlightAware Approximate
04:04PM 52.0927 -23.2322 91° East  Level FlightAware Approximate
04:05PM 52.0891 -23.0035 91° East  Level FlightAware Approximate
04:06PM 52.0850 -22.7749 92° East  Level FlightAware Approximate
04:07PM 52.0804 -22.5464 92° East  Level FlightAware Approximate
04:08PM 52.0755 -22.3179 92° East  Level FlightAware Approximate
04:09PM 52.0701 -22.0894 92° East  Level FlightAware Approximate
04:10PM 52.0642 -21.8610 92° East  Level FlightAware Approximate
04:11PM 52.0579 -21.6327 92° East  Level FlightAware Approximate
04:12PM 52.0512 -21.4044 93° East  Level FlightAware Approximate
04:13PM 52.0440 -21.1762 93° East  Level FlightAware Approximate
04:14PM 52.0364 -20.9480 93° East  Level FlightAware Approximate
04:15PM 52.0283 -20.7200 93° East  Level FlightAware Approximate
04:16PM 52.0199 -20.4920 93° East  Level FlightAware Approximate
04:17PM 52.0109 -20.2642 94° East  Level FlightAware Approximate
04:18PM 52.0015 -20.0364 94° East  Level FlightAware Approximate
04:19PM 51.9785 -19.8115 100° East  Level FlightAware Approximate
04:20PM 51.9524 -19.5873 101° East  Level FlightAware Approximate
04:21PM 51.9259 -19.3635 101° East  Level FlightAware Approximate
04:22PM 51.8991 -19.1399 101° East  Level FlightAware Approximate
04:23PM 51.8718 -18.9165 101° East  Level FlightAware Approximate
04:24PM 51.8440 -18.6935 101° East  Level FlightAware Approximate
04:25PM 51.8159 -18.4707 101° East  Level FlightAware Approximate
04:26PM 51.7873 -18.2481 102° East  Level FlightAware Approximate
04:27PM 51.7583 -18.0259 102° East  Level FlightAware Approximate
04:28PM 51.7289 -17.8040 102° East  Level FlightAware Approximate
04:29PM 51.6991 -17.5823 102° East  Level FlightAware Approximate
04:30PM 51.6695 -17.3608 102° East  Level FlightAware Approximate
04:31PM 51.6401 -17.1392 102° East  Level FlightAware Approximate
04:32PM 51.6104 -16.9180 102° East  Level FlightAware Approximate
04:33PM 51.5802 -16.6971 102° East  Level FlightAware Approximate
04:34PM 51.5497 -16.4764 102° East  Level FlightAware Approximate
04:35PM 51.5187 -16.2560 103° East  Level FlightAware Approximate
04:36PM 51.4873 -16.0360 103° East  Level FlightAware Approximate
04:37PM 51.4555 -15.8162 103° East  Level FlightAware Approximate
04:38PM 51.4233 -15.5968 103° East  Level FlightAware Approximate
04:39PM 51.3906 -15.3777 103° East  Level FlightAware Approximate
04:40PM 51.3576 -15.1588 104° East  Level FlightAware Approximate
04:41PM 51.3239 -14.9404 104° East  Level FlightAware Approximate
04:42PM 51.2892 -14.7226 104° East  Level FlightAware Approximate
04:43PM 51.2540 -14.5052 104° East  Level FlightAware Approximate
04:44PM 51.2184 -14.2880 105° East  Level FlightAware Approximate
04:45PM 51.1825 -14.0712 105° East  Level FlightAware Approximate
04:46PM 51.1461 -13.8547 105° East  Level FlightAware Approximate
04:47PM 51.1093 -13.6386 105° East  Level FlightAware Approximate
04:48PM 51.0722 -13.4228 105° East  Level FlightAware Approximate
04:49PM 51.0346 -13.2074 105° East  Level FlightAware Approximate
04:50PM 50.9964 -12.9924 106° East  Level FlightAware Approximate
04:51PM 50.9579 -12.7778 106° East  Level FlightAware Approximate
04:52PM 50.9189 -12.5635 106° East  Level FlightAware Approximate
04:52PM 50.6370 -11.1360 106° East 463 533 37,000  Level FlightAware
04:52PM 50.6230 -11.0050 100° East 464 534 37,000  Level FlightAware
04:53PM 50.6080 -10.8700 100° East 464 534 37,000  Level FlightAware
04:54PM 50.5910 -10.7230 100° East 464 534 37,000  Level FlightAware
04:54PM 50.5750 -10.5890 101° East 463 533 37,000  Level FlightAware
04:55PM 50.5610 -10.4580 100° East 463 533 37,000  Level FlightAware
04:56PM 50.5480 -10.3450 100° East 463 533 37,000  Level FlightAware
04:57PM 50.5230 -10.1370 101° East 465 535 37,000  Level FlightAware
04:57PM 50.5070 -10.0120 101° East 465 535 37,000  Level FlightAware
04:58PM 50.4870 -9.8500 101° East 463 533 37,000  Level FlightAware
04:59PM 50.4720 -9.7270 101° East 462 532 37,000  Level FlightAware
05:00PM 50.4520 -9.5690 101° East 461 531 37,000  Level FlightAware
05:00PM 50.4360 -9.4380 101° East 462 532 37,000  Level FlightAware
05:01PM 50.4160 -9.2860 102° East 463 533 37,000  Level FlightAware
05:02PM 50.4020 -9.1790 102° East 463 533 37,000  Level FlightAware
05:02PM 50.3810 -9.0190 102° East 462 532 37,000 -1,560 Level FlightAware
05:03PM 50.3712 -8.9444 102° East 494 568 35,400 -2,760 Descending FlightAware UK
05:03PM 50.3635 -8.8856 102° East 496 571 35,400 4,140 Level FlightAware UK
05:03PM 50.3640 -8.8830 102° East 462 532 37,000  Climbing FlightAware
05:03PM 50.3533 -8.8070 102° East 494 568 35,400 -2,640 Descending FlightAware UK
05:04PM 50.3456 -8.7481 102° East 496 571 35,400 4,560 Level FlightAware UK
05:04PM 50.3470 -8.7580 102° East 463 533 37,000 300 Climbing FlightAware
05:04PM 50.3378 -8.6892 102° East 496 571 35,500 -2,940 Descending FlightAware UK
05:04PM 50.3300 -8.6303 102° East 494 568 35,400 3,000 Descending FlightAware UK
05:04PM 50.3260 -8.5990 102° East 465 535 37,000 180 Climbing FlightAware
05:05PM 50.3168 -8.5320 102° East 496 571 35,500 -2,520 Descending FlightAware UK
05:05PM 50.3086 -8.4731 102° East 496 571 35,500 4,080 Level FlightAware UK
05:05PM 50.3080 -8.4670 102° East 465 535 37,000  Climbing FlightAware
05:05PM 50.2978 -8.3946 102° East 496 571 35,500 -2,400 Descending FlightAware UK
05:06PM 50.2899 -8.3356 102° East 496 571 35,500 4,500 Level FlightAware UK
05:06PM 50.2910 -8.3350 102° East 464 534 37,000  Climbing FlightAware
05:06PM 50.2825 -8.2765 102° East 498 573 35,500 -2,700 Descending FlightAware UK
05:06PM 50.2752 -8.2173 101° East 498 573 35,500 3,060 Level FlightAware UK
05:07PM 50.2730 -8.1940 101° East 464 534 37,000  Climbing FlightAware
05:07PM 50.2629 -8.1188 101° East 498 573 35,500 -2,460 Descending FlightAware UK
05:07PM 50.2553 -8.0590 101° East 496 571 35,500 4,260 Level FlightAware UK
05:07PM 50.2560 -8.0590 101° East 464 534 37,000  Climbing FlightAware
05:07PM 50.2478 -7.9999 101° East 496 571 35,500 -2,760 Descending FlightAware UK
05:08PM 50.2401 -7.9408 101° East 494 568 35,500 3,000 Level FlightAware UK
05:08PM 50.2360 -7.9080 101° East 466 536 37,000  Climbing FlightAware
05:08PM 50.2272 -7.8423 101° East 494 568 35,500 -2,520 Descending FlightAware UK
05:09PM 50.2194 -7.7831 102° East 494 568 35,500 4,080 Level FlightAware UK
05:09PM 50.2180 -7.7760 102° East 467 537 37,000  Climbing FlightAware
05:09PM 50.2090 -7.7040 102° East 496 571 35,500 -2,400 Descending FlightAware UK
05:09PM 50.2010 -7.6446 102° East 498 573 35,500 4,500 Level FlightAware UK
05:09PM 50.2010 -7.6480 102° East 469 540 37,000  Climbing FlightAware
05:10PM 50.1930 -7.5851 102° East 498 573 35,500 -2,700 Descending FlightAware UK
05:10PM 50.1849 -7.5257 102° East 498 573 35,500 3,060 Level FlightAware UK
05:10PM 50.1810 -7.4960 102° East 469 540 37,000  Climbing FlightAware
05:10PM 50.1715 -7.4264 102° East 498 573 35,500 -2,460 Descending FlightAware UK
05:11PM 50.1634 -7.3669 102° East 498 573 35,500 4,260 Level FlightAware UK
05:11PM 50.1630 -7.3630 102° East 470 541 37,000 -360 Climbing FlightAware
05:11PM 50.1553 -7.3074 102° East 496 571 35,400 -2,760 Descending FlightAware UK
05:11PM 50.1472 -7.2479 102° East 496 571 35,500 3,180 Climbing FlightAware UK
05:11PM 50.1430 -7.2160 102° East 470 541 37,000  Climbing FlightAware
05:12PM 50.1337 -7.1488 102° East 496 571 35,500 -2,520 Descending FlightAware UK
05:12PM 50.1255 -7.0893 102° East 498 573 35,500 4,080 Level FlightAware UK
05:12PM 50.1250 -7.0840 102° East 471 542 37,000  Climbing FlightAware
05:12PM 50.1143 -7.0098 102° East 498 573 35,500 -2,340 Descending FlightAware UK
05:13PM 50.1058 -6.9495 102° East 498 573 35,500 4,500 Level FlightAware UK
05:13PM 50.1060 -6.9520 102° East 472 543 37,000  Climbing FlightAware
05:13PM 50.0975 -6.8898 102° East 500 575 35,500 -2,580 Descending FlightAware UK
05:13PM 50.0891 -6.8300 102° East 498 573 35,500 3,180 Level FlightAware UK
05:14PM 50.0850 -6.8040 102° East 473 544 37,000  Climbing FlightAware
05:14PM 50.0750 -6.7304 102° East 498 573 35,500 -2,400 Descending FlightAware UK
05:14PM 50.0666 -6.6707 102° East 498 573 35,500 4,500 Level FlightAware UK
05:14PM 50.0670 -6.6710 102° East 473 544 37,000  Climbing FlightAware
05:14PM 50.0580 -6.6109 102° East 498 573 35,500 -2,700 Descending FlightAware UK
05:15PM 50.0494 -6.5511 103° East 498 573 35,500 3,720 Level FlightAware UK
05:15PM 50.0470 -6.5370 103° East 474 545 37,000  Climbing FlightAware
05:15PM 50.0378 -6.4714 103° East 502 578 35,500 -2,520 Descending FlightAware UK
05:15PM 50.0292 -6.4117 103° East 502 578 35,500 3,300 Level FlightAware UK
05:16PM 50.0260 -6.3880 103° East 473 544 37,000  Climbing FlightAware
05:16PM 50.0177 -6.3322 103° East 502 578 35,500 -2,760 Descending FlightAware UK
05:16PM 50.0090 -6.2727 103° East 502 578 35,500 3,600 Level FlightAware UK
05:16PM 50.0060 -6.2560 103° East 471 542 37,000  Climbing FlightAware
05:17PM 49.9975 -6.1935 103° East 502 578 35,500 -2,580 Descending FlightAware UK
05:17PM 49.9890 -6.1342 103° East 500 575 35,500 3,180 Level FlightAware UK
05:17PM 49.9840 -6.1050 103° East 469 540 37,000  Climbing FlightAware
05:17PM 49.9743 -6.0359 103° East 498 573 35,500 -2,400 Descending FlightAware UK
05:18PM 49.9654 -5.9763 103° East 498 573 35,500 4,500 Level FlightAware UK
05:18PM 49.9650 -5.9730 103° East 470 541 37,000  Climbing FlightAware
05:18PM 49.9566 -5.9174 103° East 500 575 35,500 -2,700 Descending FlightAware UK
05:18PM 49.9477 -5.8585 103° East 500 575 35,500 3,060 Level FlightAware UK
05:18PM 49.9430 -5.8280 103° East 470 541 37,000  Climbing FlightAware
05:19PM 49.9328 -5.7602 103° East 500 575 35,500 -2,460 Descending FlightAware UK
05:19PM 49.9239 -5.7014 103° East 502 578 35,500 4,260 Level FlightAware UK
05:19PM 49.9230 -5.6980 103° East 468 539 37,000  Climbing FlightAware
05:19PM 49.9150 -5.6426 103° East 500 575 35,500 -2,760 Descending FlightAware UK
05:20PM 49.9061 -5.5839 103° East 498 573 35,500 3,000 Level FlightAware UK
05:20PM 49.9010 -5.5530 103° East 468 539 37,000  Climbing FlightAware
05:20PM 49.8911 -5.4862 103° East 498 573 35,500 -2,520 Descending FlightAware UK
05:20PM 49.8819 -5.4270 103° East 498 573 35,500 4,080 Level FlightAware UK
05:21PM 49.8810 -5.4220 103° East 468 539 37,000  Climbing FlightAware
05:21PM 49.8699 -5.3496 103° East 498 573 35,500 -2,400 Descending FlightAware UK
05:21PM 49.8606 -5.2903 104° East 498 573 35,500 4,500 Level FlightAware UK
05:21PM 49.8610 -5.2920 104° East 468 539 37,000  Climbing FlightAware
05:21PM 49.8515 -5.2317 104° East 498 573 35,500 -2,700 Descending FlightAware UK
05:22PM 49.8425 -5.1737 103° East 496 571 35,500 3,060 Level FlightAware UK
05:22PM 49.8380 -5.1460 103° East 469 540 37,000  Climbing FlightAware
05:22PM 49.8270 -5.0754 103° East 496 571 35,500 -2,460 Descending FlightAware UK
05:23PM 49.8176 -5.0167 104° East 496 571 35,500 4,260 Level FlightAware UK
05:23PM 49.8170 -5.0140 104° East 471 542 37,000  Climbing FlightAware
05:23PM 49.8082 -4.9579 104° East 498 573 35,500 -2,760 Descending FlightAware UK
05:23PM 49.7987 -4.8991 104° East 496 571 35,500 3,000 Level FlightAware UK
05:23PM 49.7930 -4.8630 104° East 471 542 37,000  Climbing FlightAware
05:24PM 49.7829 -4.8011 104° East 498 573 35,500 -2,520 Descending FlightAware UK
05:24PM 49.7735 -4.7421 104° East 498 573 35,500 4,080 Level FlightAware UK
05:24PM 49.7720 -4.7320 104° East 472 543 37,000  Climbing FlightAware
05:24PM 49.7609 -4.6635 104° East 500 575 35,500 -2,400 Descending FlightAware UK
05:25PM 49.7514 -4.6047 104° East 502 578 35,500 4,500 Level FlightAware UK
05:25PM 49.7520 -4.6070 104° East 472 543 37,000  Climbing FlightAware
05:25PM 49.7416 -4.5452 104° East 502 578 35,500 -2,700 Descending FlightAware UK
05:25PM 49.7320 -4.4865 104° East 502 578 35,500 3,060 Level FlightAware UK
05:25PM 49.7270 -4.4570 104° East 471 542 37,000  Climbing FlightAware
05:26PM 49.7161 -4.3895 104° East 502 578 35,500 -2,460 Descending FlightAware UK
05:26PM 49.7064 -4.3304 104° East 502 578 35,500 4,260 Level FlightAware UK
05:26PM 49.7060 -4.3290 104° East 469 540 37,000  Climbing FlightAware
05:26PM 49.6967 -4.2721 104° East 500 575 35,500 -2,760 Descending FlightAware UK
05:27PM 49.6871 -4.2139 104° East 502 578 35,500 3,600 Level FlightAware UK
05:27PM 49.6860 -4.2050 104° East 468 539 37,000  Climbing FlightAware
05:27PM 49.6781 -4.1353 104° East 502 578 35,500 -2,580 Descending FlightAware UK
05:27PM 49.6725 -4.0759 98° East 504 580 35,500 3,180 Level FlightAware UK
05:28PM 49.6710 -4.0510 98° East 467 537 37,000  Climbing FlightAware
05:28PM 49.6650 -3.9762 98° East 502 578 35,500 -2,400 Descending FlightAware UK
05:28PM 49.6609 -3.9167 96° East 500 575 35,500 4,500 Level FlightAware UK
05:28PM 49.6620 -3.9220 96° East 464 534 37,000  Climbing FlightAware
05:28PM 49.6572 -3.8576 96° East 500 575 35,500 -2,700 Descending FlightAware UK
05:29PM 49.6535 -3.7986 95° East 500 575 35,500 3,060 Level FlightAware UK
05:29PM 49.6520 -3.7680 95° East 462 532 37,000  Climbing FlightAware
05:29PM 49.6471 -3.7001 95° East 498 573 35,500 -2,400 Descending FlightAware UK
05:30PM 49.6435 -3.6413 96° East 500 575 35,500 4,500 Level FlightAware UK
05:30PM 49.6430 -3.6370 96° East 460 529 37,000  Climbing FlightAware
05:30PM 49.6395 -3.5827 96° East 498 573 35,500 -2,700 Descending FlightAware UK
05:30PM 49.6355 -3.5242 96° East 496 571 35,500 3,060 Level FlightAware UK
05:30PM 49.6340 -3.4980 96° East 459 528 37,000  Climbing FlightAware
05:31PM 49.6288 -3.4268 96° East 496 571 35,500 -2,460 Descending FlightAware UK
05:31PM 49.6247 -3.3685 96° East 496 571 35,500 4,260 Level FlightAware UK
05:31PM 49.6250 -3.3660 96° East 458 527 37,000  Climbing FlightAware
05:31PM 49.6206 -3.3096 96° East 496 571 35,500 -2,940 Descending FlightAware UK
05:32PM 49.6165 -3.2513 96° East 494 568 35,400 3,600 Descending FlightAware UK
05:32PM 49.6150 -3.2350 96° East 458 527 37,000 240 Climbing FlightAware
05:32PM 49.6110 -3.1729 96° East 494 568 35,500 -2,580 Descending FlightAware UK
05:32PM 49.6070 -3.1158 96° East 496 571 35,500 3,180 Level FlightAware UK
05:32PM 49.6050 -3.0870 96° East 460 529 37,000  Climbing FlightAware
05:33PM 49.5996 -3.0171 96° East 496 571 35,500 -2,400 Descending FlightAware UK
05:33PM 49.5951 -2.9586 97° East 498 573 35,500 4,500 Level FlightAware UK
05:33PM 49.5950 -2.9540 97° East 460 529 37,000  Climbing FlightAware
05:33PM 49.5909 -2.9000 97° East 500 575 35,500 -2,700 Descending FlightAware UK
05:34PM 49.5867 -2.8413 96° East 502 578 35,500 3,060 Level FlightAware UK
05:34PM 49.5850 -2.8110 96° East 459 528 37,000 7,500 Climbing FlightAware
05:34PM 49.5840 -2.8031 101° East 461 531 37,000 -4,740 Level FlightAware ADS-B
05:34PM 49.5795 -2.7437 101° East 500 575 35,500  Descending FlightAware UK
05:34PM 49.5764 -2.7006 101° East 459 528 37,000 -240 Climbing FlightAware ADS-B
05:35PM 49.5721 -2.6462 101° East 498 573 35,400 -3,300 Descending FlightAware UK
05:35PM 49.5678 -2.5880 97° East 496 571 35,100 1,620 Descending FlightAware UK
05:35PM 49.5640 -2.5400 97° East 458 527 36,300 -1,200 Climbing FlightAware ADS-B
05:35PM 49.5600 -2.4907 97° East 500 575 34,500 -3,480 Descending FlightAware UK
05:36PM 49.5554 -2.4328 97° East 500 575 34,400 3,180 Descending FlightAware UK
05:36PM 49.5540 -2.4120 97° East 458 527 36,000  Climbing FlightAware
05:36PM 49.5477 -2.3356 97° East 496 571 34,400  Descending FlightAware UK
05:37PM 49.5444 -2.2869 97° East 457 526 36,000 120 Climbing FlightAware ADS-B
05:37PM 49.5387 -2.2199 97° East 496 571 34,500  Descending FlightAware UK
05:37PM 49.5369 -2.1922 97° East 457 526 36,000 9,000 Climbing FlightAware ADS-B
05:37PM 49.5366 -2.1893 99° East 457 526 36,000 -4,140 Level FlightAware ADS-B
05:37PM 49.5309 -2.1228 99° East 500 575 34,500 -240 Descending FlightAware UK
05:38PM 49.5283 -2.0864 99° East 456 525 35,900 6,960 Climbing FlightAware ADS-B
05:38PM 49.5280 -2.0828 97° East 456 525 35,900 -6,000 Level FlightAware ADS-B
05:38PM 49.5233 -2.0277 97° East 492 566 34,100 -1,020 Descending FlightAware UK
05:38PM 49.5203 -1.9882 97° East 456 525 35,400 4,860 Climbing FlightAware ADS-B
05:38PM 49.5195 -1.9785 97° East 455 524 35,400 -5,040 Level FlightAware ADS-B
05:39PM 49.5136 -1.9110 97° East 496 571 33,400 -900 Descending FlightAware UK
05:39PM 49.5121 -1.8882 97° East 458 527 35,000 10,620 Climbing FlightAware ADS-B
05:39PM 49.5116 -1.8818 97° East 458 527 35,000 -5,700 Level FlightAware ADS-B
05:39PM 49.5073 -1.8339 97° East 498 573 33,400 -2,940 Descending FlightAware UK
05:39PM 49.5024 -1.7759 97° East 498 573 33,400 5,280 Level FlightAware UK
05:39PM 49.5026 -1.7738 97° East 458 527 35,000 15,960 Climbing FlightAware ADS-B
05:39PM 49.5011 -1.7564 98° East 458 527 35,000 -4,020 Level FlightAware ADS-B
05:40PM 49.4959 -1.6987 98° East 498 573 33,400  Descending FlightAware UK
05:40PM 49.4916 -1.6436 98° East 457 526 35,000 4,800 Climbing FlightAware ADS-B
05:40PM 49.4908 -1.6340 97° East 457 526 35,000 -4,740 Level FlightAware ADS-B
05:40PM 49.4862 -1.5821 97° East 498 573 33,500  Descending FlightAware UK
05:40PM 49.4827 -1.5400 97° East 456 525 35,000 3,060 Climbing FlightAware ADS-B
05:41PM 49.4784 -1.4897 97° East 457 526 35,000  Level FlightAware ADS-B
05:41PM 49.4744 -1.4428 97° East 457 526 35,000 -2,940 Level FlightAware ADS-B
05:41PM 49.4695 -1.3896 97° East 498 573 33,500  Descending FlightAware UK
05:41PM 49.4678 -1.3675 97° East 456 525 35,000 6,000 Climbing FlightAware ADS-B
05:41PM 49.4656 -1.3425 98° East 456 525 35,000 -3,960 Level FlightAware ADS-B
05:42PM 49.4610 -1.2928 98° East 498 573 33,500  Descending FlightAware UK
05:42PM 49.4593 -1.2695 98° East 456 525 35,000 3,720 Climbing FlightAware ADS-B
05:42PM 49.4545 -1.2151 98° East 455 524 35,000  Level FlightAware ADS-B
05:42PM 49.4500 -1.1640 98° East 455 524 35,000 -2,520 Level FlightAware ADS-B
05:43PM 49.4440 -1.1017 98° East 500 575 33,500  Descending FlightAware UK
05:43PM 49.4404 -1.0593 98° East 455 524 35,000 6,420 Climbing FlightAware ADS-B
05:43PM 49.4403 -1.0580 97° East 455 524 35,000 -5,340 Level FlightAware ADS-B
05:43PM 49.4354 -1.0046 97° East 500 575 33,500  Descending FlightAware UK
05:43PM 49.4315 -0.9607 97° East 453 521 35,000 4,080 Climbing FlightAware ADS-B
05:44PM 49.4291 -0.9346 98° East 454 522 35,000 -3,480 Level FlightAware ADS-B
05:44PM 49.4231 -0.8711 98° East 500 575 33,400 -300 Descending FlightAware UK
05:44PM 49.4226 -0.8633 98° East 451 519 34,900 4,500 Climbing FlightAware ADS-B
05:44PM 49.4187 -0.8208 98° East 452 520 34,600 -4,560 Descending FlightAware ADS-B
05:45PM 49.4127 -0.7574 98° East 492 566 32,400 -1,620 Descending FlightAware UK
05:45PM 49.4113 -0.7402 98° East 443 510 33,900 -1,500 Climbing FlightAware ADS-B
05:45PM 49.4058 -0.6844 98° East 478 550 31,800 -1,920 Descending FlightAware UK
05:45PM 49.4023 -0.6432 98° East 433 498 32,900 -2,160 Climbing FlightAware ADS-B
05:45PM 49.3973 -0.5927 98° East 476 548 30,700 -2,400 Descending FlightAware UK
05:46PM 49.3938 -0.5520 98° East 427 491 31,700 -2,100 Climbing FlightAware ADS-B
05:46PM 49.3894 -0.5043 98° East 470 541 29,700 -1,200 Descending FlightAware UK
05:46PM 49.3873 -0.4595 98° East 422 486 31,100 -780 Climbing FlightAware ADS-B
05:46PM 49.3845 -0.4136 98° East 460 529 29,300 -780 Descending FlightAware UK
05:47PM 49.3831 -0.3699 98° East 415 478 30,700 -1,020 Climbing FlightAware ADS-B
05:47PM 49.3811 -0.3263 98° East 454 522 28,800 -1,200 Descending FlightAware UK
05:47PM 49.3799 -0.2809 98° East 410 472 30,100 -1,200 Climbing FlightAware ADS-B
05:48PM 49.3777 -0.2219 98° East 444 511 28,100 -1,200 Descending FlightAware UK
05:48PM 49.3768 -0.1782 98° East 409 471 29,400 -1,200 Climbing FlightAware ADS-B
05:48PM 49.3752 -0.1341 98° East 442 509 27,500 -1,200 Descending FlightAware UK
05:48PM 49.3741 -0.0920 98° East 405 466 28,800 -1,080 Climbing FlightAware ADS-B
05:49PM 49.3721 -0.0324 98° East 438 504 26,900 -1,020 Descending FlightAware UK
05:49PM 49.3711 -0.0025 98° East 403 464 28,300 -780 Climbing FlightAware ADS-B
05:49PM 49.3690 0.0534 98° East 436 502 26,500 -1,020 Descending FlightAware UK
05:49PM 49.3680 0.0833 98° East 398 458 27,800 -1,020 Climbing FlightAware ADS-B
05:50PM 49.3657 0.1370 98° East 436 502 26,000 -780 Descending FlightAware UK
05:50PM 49.3646 0.1694 98° East 392 451 27,400 -840 Climbing FlightAware ADS-B
05:50PM 49.3624 0.2201 98° East 432 497 25,600 -840 Descending FlightAware UK
05:50PM 49.3613 0.2537 98° East 387 445 27,000 -840 Climbing FlightAware ADS-B
05:51PM 49.3591 0.3012 98° East 424 488 25,200 -1,020 Descending FlightAware UK
05:51PM 49.3579 0.3361 98° East 384 442 26,500 -1,020 Climbing FlightAware ADS-B
05:51PM 49.3556 0.3841 98° East 422 486 24,700 -3,600 Descending FlightAware UK
05:51PM 49.3536 0.4326 94° East 422 486 24,400 2,880 Descending FlightAware UK
05:52PM 49.3540 0.4410 94° East 378 435 25,900 -1,800 Climbing FlightAware
05:52PM 49.3511 0.4961 94° East 416 479 23,700 -4,980 Descending FlightAware UK
05:52PM 49.3492 0.5434 94° East 414 476 23,000 1,260 Descending FlightAware UK
05:52PM 49.3490 0.5620 94° East 370 426 24,300 -2,220 Climbing FlightAware
05:53PM 49.3458 0.6208 94° East 406 467 21,900 -4,740 Descending FlightAware UK
05:53PM 49.3437 0.6681 94° East 404 465 21,300 2,700 Descending FlightAware UK
05:53PM 49.3440 0.6700 94° East 365 420 22,800 -2,040 Climbing FlightAware
05:53PM 49.3417 0.7145 94° East 404 465 20,700 -2,160 Descending FlightAware UK
05:53PM 49.3408 0.7456 94° East 362 417 21,800 -2,220 Climbing FlightAware ADS-B
05:54PM 49.3384 0.7912 94° East 404 465 19,600 -1,980 Descending FlightAware UK
05:54PM 49.3375 0.8227 94° East 356 410 20,800 -2,040 Climbing FlightAware ADS-B
05:54PM 49.3353 0.8670 94° East 398 458 18,600 -2,160 Descending FlightAware UK
05:54PM 49.3339 0.8990 94° East 351 404 19,700 -1,800 Climbing FlightAware ADS-B
05:55PM 49.3316 0.9409 94° East 392 451 17,700 -1,800 Descending FlightAware UK
05:55PM 49.3304 0.9735 94° East 346 398 18,800 -2,040 Climbing FlightAware ADS-B
05:55PM 49.3282 1.0139 94° East 386 444 16,700 -2,040 Descending FlightAware UK
05:55PM 49.3271 1.0470 94° East 341 392 17,800 -2,040 Climbing FlightAware ADS-B
05:56PM 49.3251 1.0856 94° East 376 433 15,700 -1,800 Descending FlightAware UK
05:56PM 49.3242 1.1102 94° East 336 387 17,000 -1,800 Climbing FlightAware ADS-B
05:56PM 49.3218 1.1569 94° East 372 428 14,800 -2,040 Descending FlightAware UK
05:56PM 49.3208 1.1812 94° East 331 381 16,000 -1,800 Climbing FlightAware ADS-B
05:57PM 49.3183 1.2275 94° East 366 421 13,900 -1,740 Descending FlightAware UK
05:57PM 49.3177 1.2457 94° East 328 377 15,200 -2,040 Climbing FlightAware ADS-B
05:57PM 49.3157 1.2826 94° East 362 417 13,100 -1,800 Descending FlightAware UK
05:57PM 49.3143 1.3149 94° East 328 377 14,300 -1,800 Climbing FlightAware ADS-B
05:58PM 49.3122 1.3514 94° East 354 407 12,200 -2,040 Descending FlightAware UK
05:58PM 49.3109 1.3851 94° East 329 379 13,300 -1,800 Climbing FlightAware ADS-B
05:58PM 49.3086 1.4208 94° East 350 403 11,300 -1,860 Descending FlightAware UK
05:58PM 49.3072 1.4623 94° East 333 383 12,300 -1,860 Climbing FlightAware ADS-B
05:59PM 49.3045 1.5057 94° East 354 407 10,200 -4,500 Descending FlightAware UK
05:59PM 49.3023 1.5482 95° East 358 412 9,600 1,980 Descending FlightAware UK
05:59PM 49.3020 1.5610 95° East 335 386 11,000 -1,440 Climbing FlightAware ADS-B
05:59PM 49.2992 1.6062 95° East 358 412 9,000 -1,020 Descending FlightAware UK
06:00PM 49.2977 1.6311 95° East 322 371 10,500 5,220 Climbing FlightAware ADS-B
06:00PM 49.2955 1.6427 106° East 316 364 10,400 -540 Descending FlightAware ADS-B
06:00PM 49.2916 1.6561 114° Southeast 308 354 10,400 -540 Level FlightAware ADS-B
06:00PM 49.2879 1.6650 123° Southeast 301 346 10,300 -720 Descending FlightAware ADS-B
06:00PM 49.2844 1.6719 128° Southeast 297 342 10,300 -5,100 Level FlightAware ADS-B
06:00PM 49.2684 1.6960 128° Southeast 330 380 8,600 -240 Descending FlightAware UK
06:00PM 49.2589 1.7145 128° Southeast 278 320 10,200  Climbing FlightAware ADS-B
06:01PM 49.2436 1.7393 128° Southeast 300 345 8,600 -240 Descending FlightAware UK
06:01PM 49.2373 1.7508 128° Southeast 251 289 10,100 -720 Climbing FlightAware ADS-B
06:01PM 49.2250 1.7708 128° Southeast 280 322 8,300 -780 Descending FlightAware UK
06:01PM 49.2251 1.7710 128° Southeast 246 283 9,900 4,860 Climbing FlightAware ADS-B
06:01PM 49.2132 1.7906 133° Southeast 243 280 9,600 -1,200 Descending FlightAware ADS-B
06:02PM 49.2014 1.8101 133° Southeast 243 280 9,300 -1,020 Descending FlightAware ADS-B
06:02PM 49.1898 1.8295 132° Southeast 241 277 9,100 -1,020 Descending FlightAware ADS-B
06:02PM 49.1786 1.8483 132° Southeast 240 276 8,800 -1,200 Descending FlightAware ADS-B
06:02PM 49.1674 1.8671 132° Southeast 239 275 8,500 -1,380 Descending FlightAware ADS-B
06:03PM 49.1553 1.8870 133° Southeast 237 273 8,100 -1,380 Descending FlightAware ADS-B
06:03PM 49.1442 1.9056 132° Southeast 235 270 7,800 -1,320 Descending FlightAware ADS-B
06:03PM 49.1385 1.9149 133° Southeast 235 270 7,600 -1,320 Descending FlightAware ADS-B
06:03PM 49.1274 1.9330 133° Southeast 234 269 7,300 -1,380 Descending FlightAware ADS-B
06:04PM 49.1158 1.9516 134° Southeast 234 269 6,900 -1,380 Descending FlightAware ADS-B
06:04PM 49.1045 1.9697 134° Southeast 235 270 6,600 -1,440 Descending FlightAware ADS-B
06:04PM 49.0930 1.9882 133° Southeast 236 272 6,200 -1,380 Descending FlightAware ADS-B
06:04PM 49.0815 2.0070 133° Southeast 236 272 5,900 -1,200 Descending FlightAware ADS-B
06:05PM 49.0702 2.0257 133° Southeast 236 272 5,600 -1,200 Descending FlightAware ADS-B
06:05PM 49.0587 2.0445 133° Southeast 236 272 5,300 -840 Descending FlightAware ADS-B
06:05PM 49.0476 2.0632 132° Southeast 234 269 5,200 -240 Descending FlightAware ADS-B
06:05PM 49.0370 2.0811 132° Southeast 222 255 5,200  Level FlightAware ADS-B
06:06PM 49.0265 2.0988 132° Southeast 219 252 5,200 -420 Level FlightAware ADS-B
06:06PM 49.0163 2.1160 132° Southeast 217 250 5,000 -1,020 Descending FlightAware ADS-B
06:06PM 49.0063 2.1329 132° Southeast 215 247 4,700 -1,440 Descending FlightAware ADS-B
06:06PM 48.9965 2.1499 131° Southeast 216 249 4,300 -960 Descending FlightAware ADS-B
06:07PM 48.9854 2.1692 131° Southeast 220 253 4,200 -240 Descending FlightAware ADS-B
06:07PM 48.9793 2.1809 128° Southeast 221 254 4,200  Level FlightAware ADS-B
06:07PM 48.9774 2.1864 118° Southeast 223 257 4,200  Level FlightAware ADS-B
06:07PM 48.9755 2.1957 107° East 227 261 4,200  Level FlightAware ADS-B
06:07PM 48.9745 2.2062 98° East 227 261 4,200  Level FlightAware ADS-B
06:07PM 48.9742 2.2171 92° East 229 264 4,200  Level FlightAware ADS-B
06:07PM 48.9745 2.2260 87° East 230 265 4,200  Level FlightAware ADS-B
06:07PM 48.9751 2.2366 85° East 232 267 4,200  Level FlightAware ADS-B
06:07PM 48.9756 2.2435 84° East 230 265 4,200  Level FlightAware ADS-B
06:08PM 48.9763 2.2571 86° East 225 259 4,200  Level FlightAware ADS-B
06:08PM 48.9773 2.2810 86° East 210 242 4,200 -420 Level FlightAware ADS-B
06:08PM 48.9787 2.3036 85° East 203 234 4,000 -1,020 Descending FlightAware ADS-B
06:08PM 48.9799 2.3259 85° East 197 227 3,700 -1,140 Descending FlightAware ADS-B
06:09PM 48.9814 2.3542 85° East 189 217 3,300 -1,080 Descending FlightAware ADS-B
06:09PM 48.9828 2.3795 85° East 187 215 3,000 -960 Descending FlightAware ADS-B
06:09PM 48.9846 2.4107 85° East 181 208 2,600 -960 Descending FlightAware ADS-B
06:10PM 48.9870 2.4470 84° East 166 191 2,100 -900 Descending FlightAware
06:10PM 48.9870 2.4630 90° East 160 184 1,900 -780 Descending FlightAware
06:11PM 48.9890 2.4930 84° East 150 173 1,600 -900 Descending FlightAware
06:11PM 48.9896 2.5050 86° East 149 171 1,400 -960 Descending FlightAware ADS-B
06:11PM 48.9905 2.5207 85° East 143 165 1,200 -780 Descending FlightAware ADS-B
06:11PM 48.9914 2.5369 85° East 144 166 1,000 -900 Descending FlightAware ADS-B
06:12PM 48.9923 2.5550 86° East 147 169 700 -900 Descending FlightAware ADS-B
06:12PM 48.9932 2.5712 85° East 147 169 500 -780 Descending FlightAware ADS-B